createdAt,value
2023-10-23T00:01:22.660Z,100425.44
2023-10-23T00:03:50.372Z,100428.81
2023-10-23T00:06:17.575Z,100425.69
2023-10-23T00:08:44.432Z,100415.72
2023-10-23T00:11:22.387Z,100424.88
2023-10-23T00:13:49.509Z,100428.28
2023-10-23T00:16:16.278Z,100437.03
2023-10-23T00:18:43.259Z,100428.72
2023-10-23T00:21:10.234Z,100433.75
2023-10-23T00:23:37.067Z,100430.25
2023-10-23T00:26:03.944Z,100425.81
2023-10-23T00:28:30.742Z,100437.84
2023-10-23T00:30:58.336Z,100436.66
2023-10-23T00:33:27.438Z,100432.31
2023-10-23T00:35:54.987Z,100435.16
2023-10-23T00:38:23.460Z,100443.47
2023-10-23T00:40:50.348Z,100439.50
2023-10-23T00:43:23.467Z,100442.31
2023-10-23T00:45:54.127Z,100440.44
2023-10-23T00:48:23.187Z,100441.19
2023-10-23T00:50:51.832Z,100435.22
2023-10-23T00:53:20.290Z,100448.06
2023-10-23T00:55:47.672Z,100440.88
2023-10-23T00:58:16.193Z,100451.78
2023-10-23T01:00:45.535Z,100441.47
2023-10-23T01:03:13.185Z,100439.97
2023-10-23T01:05:40.216Z,100437.97
2023-10-23T01:08:07.496Z,100445.97
2023-10-23T01:10:34.846Z,100440.50
2023-10-23T01:13:05.870Z,100448.78
2023-10-23T01:15:32.896Z,100442.69
2023-10-23T01:18:01.214Z,100448.94
2023-10-23T01:20:29.532Z,100447.63
2023-10-23T01:23:00.896Z,100445.00
2023-10-23T01:25:29.570Z,100433.66
2023-10-23T01:27:56.507Z,100429.69
2023-10-23T01:30:23.601Z,100425.47
2023-10-23T01:32:50.728Z,100439.00
2023-10-23T01:35:17.779Z,100437.19
2023-10-23T01:37:46.278Z,100442.38
2023-10-23T01:40:13.315Z,100440.88
2023-10-23T01:42:40.952Z,100440.56
2023-10-23T01:45:08.807Z,100444.75
2023-10-23T01:47:36.923Z,100441.94
2023-10-23T01:50:03.875Z,100433.31
2023-10-23T01:52:30.628Z,100444.81
2023-10-23T01:54:59.537Z,100433.50
2023-10-23T01:57:26.406Z,100442.50
2023-10-23T01:59:53.816Z,100433.34
2023-10-23T02:02:20.545Z,100433.50
2023-10-23T02:04:47.499Z,100443.00
2023-10-23T02:07:14.509Z,100423.56
2023-10-23T02:09:41.449Z,100432.41
2023-10-23T02:12:08.508Z,100437.03
2023-10-23T02:14:35.308Z,100441.03
2023-10-23T02:17:02.235Z,100444.38
2023-10-23T02:19:31.480Z,100437.91
2023-10-23T02:21:58.533Z,100427.72
2023-10-23T02:24:25.431Z,100419.09
2023-10-23T02:26:52.875Z,100425.25
2023-10-23T02:29:19.649Z,100427.09
2023-10-23T02:31:46.522Z,100432.72
2023-10-23T02:34:13.384Z,100433.41
2023-10-23T02:36:40.371Z,100435.22
2023-10-23T02:39:07.518Z,100448.19
2023-10-23T02:41:34.344Z,100440.91
2023-10-23T02:44:01.331Z,100443.72
2023-10-23T02:46:28.291Z,100439.53
2023-10-23T02:48:55.306Z,100441.53
2023-10-23T02:51:22.148Z,100442.66
2023-10-23T02:53:48.999Z,100450.31
2023-10-23T02:56:15.928Z,100461.97
2023-10-23T02:58:42.785Z,100466.28
2023-10-23T03:01:16.728Z,100462.75
2023-10-23T03:03:45.097Z,100461.44
2023-10-23T03:06:12.154Z,100455.25
2023-10-23T03:08:39.077Z,100466.22
2023-10-23T03:11:06.465Z,100454.41
2023-10-23T03:13:34.020Z,100460.53
2023-10-23T03:16:01.143Z,100469.78
2023-10-23T03:18:28.302Z,100480.41
2023-10-23T03:21:00.448Z,100481.56
2023-10-23T03:23:29.516Z,100474.34
2023-10-23T03:25:57.465Z,100485.72
2023-10-23T03:28:24.732Z,100483.06
2023-10-23T03:30:51.607Z,100491.63
2023-10-23T03:33:18.607Z,100487.69
2023-10-23T03:35:45.955Z,100492.19
2023-10-23T03:38:14.085Z,100484.34
2023-10-23T03:40:40.866Z,100481.66
2023-10-23T03:43:07.868Z,100490.28
2023-10-23T03:45:38.711Z,100492.94
2023-10-23T03:48:06.118Z,100495.38
2023-10-23T03:50:37.233Z,100491.53
2023-10-23T03:53:04.216Z,100493.22
2023-10-23T03:55:31.009Z,100488.22
2023-10-23T03:57:57.825Z,100486.16
2023-10-23T04:00:24.649Z,100484.81
2023-10-23T04:02:53.447Z,100493.09
2023-10-23T04:05:20.354Z,100493.47
2023-10-23T04:07:47.273Z,100494.41
2023-10-23T04:10:16.891Z,100488.59
2023-10-23T04:12:43.711Z,100480.56
2023-10-23T04:15:10.904Z,100493.69
2023-10-23T04:17:37.656Z,100496.88
2023-10-23T04:20:05.629Z,100493.38
2023-10-23T04:22:32.676Z,100492.69
2023-10-23T04:24:59.483Z,100489.25
2023-10-23T04:27:26.315Z,100481.59
2023-10-23T04:29:53.099Z,100486.59
2023-10-23T04:32:19.945Z,100489.25
2023-10-23T04:34:46.733Z,100482.97
2023-10-23T04:37:13.438Z,100479.47
2023-10-23T04:39:40.492Z,100470.16
2023-10-23T04:42:07.549Z,100471.81
2023-10-23T04:44:35.303Z,100481.06
2023-10-23T04:47:02.228Z,100478.34
2023-10-23T04:49:29.424Z,100476.03
2023-10-23T04:51:56.252Z,100479.88
2023-10-23T04:54:23.107Z,100481.88
2023-10-23T04:56:49.861Z,100490.72
2023-10-23T04:59:16.743Z,100489.03
2023-10-23T05:01:43.582Z,100480.41
2023-10-23T05:04:10.591Z,100480.25
2023-10-23T05:06:37.695Z,100486.91
2023-10-23T05:09:05.443Z,100479.09
2023-10-23T05:11:33.890Z,100489.03
2023-10-23T05:14:00.663Z,100504.25
2023-10-23T05:16:27.600Z,100503.94
2023-10-23T05:18:54.588Z,100498.41
2023-10-23T05:21:21.413Z,100494.25
2023-10-23T05:23:48.171Z,100505.38
2023-10-23T05:26:16.257Z,100503.09
2023-10-23T05:28:43.244Z,100504.47
2023-10-23T05:31:10.911Z,100511.28
2023-10-23T05:33:38.564Z,100514.00
2023-10-23T05:36:06.996Z,100523.84
2023-10-23T05:38:34.075Z,100516.69
2023-10-23T05:41:02.142Z,100519.56
2023-10-23T05:43:29.443Z,100522.38
2023-10-23T05:45:56.970Z,100530.72
2023-10-23T05:48:24.510Z,100529.09
2023-10-23T05:51:06.136Z,100528.78
2023-10-23T05:53:33.595Z,100526.28
2023-10-23T05:56:07.150Z,100523.34
2023-10-23T05:58:35.217Z,100525.03
2023-10-23T06:01:09.730Z,100529.97
2023-10-23T06:03:37.512Z,100529.97
2023-10-23T06:06:05.455Z,100527.47
2023-10-23T06:08:32.365Z,100531.13
2023-10-23T06:10:59.174Z,100528.38
2023-10-23T06:13:26.075Z,100528.09
2023-10-23T06:15:53.394Z,100537.69
2023-10-23T06:18:21.137Z,100525.59
2023-10-23T06:20:48.025Z,100538.19
2023-10-23T06:23:15.033Z,100532.88
2023-10-23T06:25:41.870Z,100548.66
2023-10-23T06:28:08.782Z,100534.84
2023-10-23T06:30:38.693Z,100539.38
2023-10-23T06:33:05.522Z,100543.53
2023-10-23T06:35:32.523Z,100546.25
2023-10-23T06:37:59.385Z,100568.03
2023-10-23T06:40:26.347Z,100581.56
2023-10-23T06:42:53.075Z,100578.47
2023-10-23T06:45:19.857Z,100573.44
2023-10-23T06:47:50.662Z,100590.09
2023-10-23T06:50:18.378Z,100569.34
2023-10-23T06:52:46.190Z,100573.66
2023-10-23T06:55:13.841Z,100588.63
2023-10-23T06:57:41.150Z,100586.13
2023-10-23T07:00:08.830Z,100576.47
2023-10-23T07:02:35.750Z,100580.81
2023-10-23T07:05:02.922Z,100578.75
2023-10-23T07:07:30.696Z,100591.53
2023-10-23T07:10:01.627Z,100589.56
2023-10-23T07:12:28.693Z,100581.41
2023-10-23T07:14:55.520Z,100588.56
2023-10-23T07:17:22.448Z,100584.78
2023-10-23T07:19:49.293Z,100578.97
2023-10-23T07:22:16.344Z,100583.31
2023-10-23T07:24:43.293Z,100578.81
2023-10-23T07:27:13.441Z,100572.13
2023-10-23T07:29:40.577Z,100572.84
2023-10-23T07:32:07.979Z,100577.34
2023-10-23T07:34:34.967Z,100584.34
2023-10-23T07:37:02.255Z,100577.66
2023-10-23T07:39:29.099Z,100585.38
2023-10-23T07:41:55.871Z,100576.94
2023-10-23T07:44:22.955Z,100574.44
2023-10-23T07:46:49.953Z,100575.00
2023-10-23T07:49:17.705Z,100574.88
2023-10-23T07:51:45.955Z,100577.56
2023-10-23T07:54:12.836Z,100572.59
2023-10-23T07:56:39.600Z,100584.09
2023-10-23T07:59:07.955Z,100579.25
2023-10-23T08:01:35.328Z,100580.78
2023-10-23T08:04:02.264Z,100585.78
2023-10-23T08:06:29.215Z,100588.81
2023-10-23T08:08:56.030Z,100587.97
2023-10-23T08:11:22.796Z,100601.16
2023-10-23T08:13:49.869Z,100591.66
2023-10-23T08:16:16.773Z,100600.97
2023-10-23T08:18:44.035Z,100604.78
2023-10-23T08:21:16.462Z,100610.28
2023-10-23T08:23:45.897Z,100599.97
2023-10-23T08:26:13.713Z,100585.81
2023-10-23T08:31:20.632Z,100606.97
2023-10-23T08:33:57.606Z,100608.81
2023-10-23T08:36:24.595Z,100613.00
2023-10-23T08:38:51.549Z,100616.50
2023-10-23T08:41:18.573Z,100613.84
2023-10-23T08:43:45.570Z,100618.50
2023-10-23T08:46:12.419Z,100604.19
2023-10-23T08:48:39.604Z,100603.03
2023-10-23T08:51:08.558Z,100604.19
2023-10-23T08:53:51.992Z,100609.13
2023-10-23T08:56:26.841Z,100617.41
2023-10-23T08:59:00.432Z,100616.84
2023-10-23T09:01:28.752Z,100618.09
2023-10-23T09:04:03.311Z,100608.69
2023-10-23T09:06:33.450Z,100612.13
2023-10-23T09:09:01.298Z,100606.38
2023-10-23T09:11:48.574Z,100597.97
2023-10-23T09:14:27.323Z,100593.06
2023-10-23T09:16:56.925Z,100592.00
2023-10-23T09:19:38.801Z,100602.34
2023-10-23T09:22:10.008Z,100602.66
2023-10-23T09:24:38.640Z,100611.41
2023-10-23T09:27:05.826Z,100599.47
2023-10-23T09:29:34.125Z,100614.97
2023-10-23T09:32:01.251Z,100611.94
2023-10-23T09:34:30.412Z,100606.34
2023-10-23T09:36:57.416Z,100603.31
2023-10-23T09:39:24.627Z,100607.28
2023-10-23T09:41:52.502Z,100612.91
2023-10-23T09:44:19.314Z,100603.78
2023-10-23T09:46:49.427Z,100606.34
2023-10-23T09:49:17.855Z,100598.41
2023-10-23T09:51:51.209Z,100596.28
2023-10-23T09:54:22.601Z,100589.72
2023-10-23T09:56:53.251Z,100596.84
2023-10-23T09:59:26.349Z,100584.09
2023-10-23T10:01:58.432Z,100583.09
2023-10-23T10:04:51.761Z,100580.69
2023-10-23T10:07:28.347Z,100570.47
2023-10-23T10:09:56.298Z,100576.34
2023-10-23T10:12:24.841Z,100577.59
2023-10-23T10:14:54.395Z,100570.56
2023-10-23T10:17:21.772Z,100563.53
2023-10-23T10:19:50.511Z,100559.28
2023-10-23T10:22:37.204Z,100554.84
2023-10-23T10:25:09.150Z,100552.84
2023-10-23T10:27:36.363Z,100545.72
2023-10-23T10:30:09.286Z,100532.16
2023-10-23T10:34:25.025Z,100535.47
2023-10-23T10:35:41.555Z,100530.75
2023-10-23T10:38:14.244Z,100538.00
2023-10-23T10:41:01.189Z,100538.06
2023-10-23T10:43:34.161Z,100529.81
2023-10-23T10:46:15.518Z,100533.25
2023-10-23T10:48:47.760Z,100517.63
2023-10-23T10:51:20.374Z,100517.50
2023-10-23T10:53:48.079Z,100507.44
2023-10-23T10:56:15.351Z,100511.81
2023-10-23T10:58:45.432Z,100500.38
2023-10-23T11:01:12.736Z,100505.06
2023-10-23T11:03:39.774Z,100500.78
2023-10-23T11:06:07.224Z,100495.53
2023-10-23T11:08:35.260Z,100482.38
2023-10-23T11:11:03.531Z,100488.44
2023-10-23T11:13:30.514Z,100482.94
2023-10-23T11:15:57.375Z,100480.72
2023-10-23T11:18:24.211Z,100470.63
2023-10-23T11:20:51.119Z,100474.94
2023-10-23T11:23:23.418Z,100473.88
2023-10-23T11:25:51.620Z,100455.72
2023-10-23T11:28:19.030Z,100465.63
2023-10-23T11:30:51.406Z,100464.34
2023-10-23T11:33:20.357Z,100463.50
2023-10-23T11:35:47.202Z,100452.78
2023-10-23T11:38:19.630Z,100454.03
2023-10-23T11:40:47.158Z,100457.63
2023-10-23T11:43:17.119Z,100443.41
2023-10-23T11:45:46.807Z,100454.16
2023-10-23T11:48:14.073Z,100446.97
2023-10-23T11:50:44.123Z,100434.13
2023-10-23T11:53:10.967Z,100428.97
2023-10-23T11:55:39.109Z,100418.25
2023-10-23T11:58:06.154Z,100427.34
2023-10-23T12:00:36.745Z,100437.28
2023-10-23T12:03:05.802Z,100426.72
2023-10-23T12:05:32.961Z,100422.78
2023-10-23T12:07:59.731Z,100435.75
2023-10-23T12:10:27.668Z,100433.28
2023-10-23T12:12:56.054Z,100427.31
2023-10-23T12:15:28.636Z,100421.53
2023-10-23T12:18:03.696Z,100417.19
2023-10-23T12:20:31.080Z,100421.97
2023-10-23T12:22:57.862Z,100425.84
2023-10-23T12:25:24.743Z,100422.91
2023-10-23T12:27:52.289Z,100414.97
2023-10-23T12:30:24.169Z,100428.25
2023-10-23T12:33:11.623Z,100406.09
2023-10-23T12:35:41.262Z,100413.75
2023-10-23T12:38:08.238Z,100407.91
2023-10-23T12:40:37.225Z,100395.41
2023-10-23T12:43:05.380Z,100404.25
2023-10-23T12:45:32.786Z,100395.88
2023-10-23T12:47:59.928Z,100396.25
2023-10-23T12:50:26.744Z,100392.59
2023-10-23T12:52:53.578Z,100382.78
2023-10-23T12:55:20.407Z,100375.19
